Dixon, Kentucky
Current Conditions -  °F | °C
As of 2:35 AM on Thursday 27 Nov 2014 (Local Time) from KEHR Reporting Station
Overcast Overcast  
Wind Chill: -3°   Ceiling: 2100
Heat Index:   Visibility: 9mi
Dew Point: -2°   Wind: 8mph
Humidity: 81%   Direction: 330°NNW
Pressure: 30.2"   Gusts: NA
Location:  37.52°N, 87.69°W
Report Text: KEHR 270835Z AUTO 33007KT 9SM SCT009 BKN021 OVC031 01/M02 A3020 RMK AO1
Loading
Personal Weather Stations






























Interactive Weather Map New forecast layout! Learn more

10-Day Weather Forecast

Advertisements
Track Severe Weather on mobile